createdAt,value
2022-11-03T00:01:21.545Z,2.17
2022-11-03T00:06:23.305Z,1.50
2022-11-03T00:11:25.118Z,2.20
2022-11-03T00:16:26.920Z,2.42
2022-11-03T00:21:28.981Z,1.98
2022-11-03T00:26:33.025Z,2.17
2022-11-03T00:31:36.874Z,2.10
2022-11-03T00:36:43.861Z,2.00
2022-11-03T00:41:45.720Z,2.15
2022-11-03T00:46:47.501Z,1.92
2022-11-03T00:51:49.201Z,1.80
2022-11-03T00:56:50.943Z,2.38
2022-11-03T01:01:53.075Z,2.17
2022-11-03T01:06:58.506Z,2.70
2022-11-03T01:12:04.843Z,2.38
2022-11-03T01:17:09.130Z,2.25
2022-11-03T01:22:11.812Z,2.80
2022-11-03T01:27:19.616Z,2.00
2022-11-03T01:32:21.426Z,1.75
2022-11-03T01:37:25.107Z,2.50
2022-11-03T01:42:27.010Z,2.20
2022-11-03T01:47:32.734Z,2.00
2022-11-03T01:52:48.459Z,2.22
2022-11-03T01:58:01.219Z,2.38
2022-11-03T02:03:03.710Z,2.60
2022-11-03T02:13:26.350Z,2.35
2022-11-03T02:18:32.546Z,1.63
2022-11-03T02:23:50.234Z,2.92
2022-11-03T02:34:06.462Z,2.15
2022-11-03T02:39:25.000Z,2.20
2022-11-03T02:44:28.507Z,1.88
2022-11-03T02:49:30.308Z,2.22
2022-11-03T02:54:45.622Z,2.17
2022-11-03T02:59:56.896Z,1.95
2022-11-03T03:05:01.600Z,3.00
2022-11-03T03:10:08.581Z,2.33
2022-11-03T03:15:10.545Z,2.63
2022-11-03T03:20:20.928Z,1.70
2022-11-03T03:25:29.923Z,2.78
2022-11-03T03:30:34.214Z,2.10
2022-11-03T03:35:40.271Z,2.53
2022-11-03T03:40:45.115Z,2.50
2022-11-03T03:45:48.994Z,2.47
2022-11-03T03:50:51.480Z,3.03
2022-11-03T03:55:53.280Z,1.60
2022-11-03T04:00:55.171Z,1.98
2022-11-03T04:05:56.949Z,3.70
2022-11-03T04:11:17.388Z,1.85
2022-11-03T04:16:37.965Z,2.95
2022-11-03T04:21:58.531Z,2.45
2022-11-03T04:32:15.460Z,2.15
2022-11-03T04:37:17.504Z,2.00
2022-11-03T04:42:21.399Z,1.92
2022-11-03T04:47:23.100Z,2.67
2022-11-03T04:52:25.011Z,2.05
2022-11-03T04:57:28.451Z,2.30
2022-11-03T05:02:30.584Z,2.53
2022-11-03T05:07:35.722Z,2.47
2022-11-03T05:12:37.514Z,1.75
2022-11-03T05:17:39.248Z,2.10
2022-11-03T05:22:41.124Z,2.67
2022-11-03T05:27:42.981Z,2.50
2022-11-03T05:32:44.728Z,3.00
2022-11-03T05:37:46.668Z,2.00
2022-11-03T05:42:53.620Z,2.28
2022-11-03T05:47:57.135Z,2.17
2022-11-03T05:53:08.560Z,2.30
2022-11-03T05:58:31.677Z,2.05
2022-11-03T06:03:35.966Z,2.10
2022-11-03T06:08:40.197Z,1.95
2022-11-03T06:13:44.957Z,2.75
2022-11-03T06:18:46.830Z,2.60
2022-11-03T06:23:48.860Z,2.20
2022-11-03T06:28:51.315Z,2.03
2022-11-03T06:33:53.615Z,2.55
2022-11-03T06:39:04.222Z,1.90
2022-11-03T06:44:28.394Z,1.95
2022-11-03T06:49:33.071Z,2.25
2022-11-03T06:54:34.777Z,3.15
2022-11-03T06:59:36.468Z,2.95
2022-11-03T07:04:38.194Z,1.63
2022-11-03T07:09:40.106Z,2.40
2022-11-03T07:14:42.167Z,1.95
2022-11-03T07:19:45.945Z,2.33
2022-11-03T07:24:50.302Z,1.83
2022-11-03T07:29:57.129Z,2.10
2022-11-03T07:35:15.299Z,2.10
2022-11-03T07:40:20.833Z,1.83
2022-11-03T07:45:44.106Z,1.73
2022-11-03T07:50:53.829Z,2.15
2022-11-03T07:55:56.596Z,1.90
2022-11-03T08:00:58.470Z,1.33
2022-11-03T08:06:02.670Z,2.33
2022-11-03T08:11:07.199Z,1.92
2022-11-03T08:16:08.979Z,1.73
2022-11-03T08:21:11.023Z,1.50
2022-11-03T08:26:12.850Z,3.10
2022-11-03T08:31:14.704Z,1.75
2022-11-03T08:36:16.483Z,1.30
2022-11-03T08:41:18.231Z,1.42
2022-11-03T08:46:19.939Z,2.03
2022-11-03T08:51:21.757Z,2.05
2022-11-03T08:56:23.691Z,2.42
2022-11-03T09:01:25.531Z,2.30
2022-11-03T09:06:27.263Z,1.90
2022-11-03T09:11:28.986Z,1.90
2022-11-03T09:16:30.748Z,2.15
2022-11-03T09:21:32.450Z,1.40
2022-11-03T09:26:34.221Z,1.70
2022-11-03T09:31:36.022Z,1.35
2022-11-03T09:36:38.301Z,1.30
2022-11-03T09:41:57.191Z,1.67
2022-11-03T09:47:01.165Z,1.90
2022-11-03T09:52:04.312Z,1.48
2022-11-03T09:57:12.238Z,1.50
2022-11-03T10:02:21.351Z,1.33
2022-11-03T10:07:24.037Z,1.70
2022-11-03T10:12:27.738Z,1.88
2022-11-03T10:17:31.056Z,1.60
2022-11-03T10:22:34.983Z,1.50
2022-11-03T10:27:40.129Z,2.22
2022-11-03T10:32:41.850Z,1.83
2022-11-03T10:37:43.600Z,1.60
2022-11-03T10:42:58.695Z,1.80
2022-11-03T10:48:02.656Z,2.45
2022-11-03T10:53:05.262Z,1.88
2022-11-03T10:58:07.839Z,1.35
2022-11-03T11:03:16.466Z,1.55
2022-11-03T11:08:23.646Z,1.60
2022-11-03T11:13:27.481Z,1.83
2022-11-03T11:18:29.306Z,1.75
2022-11-03T11:23:33.910Z,1.55
2022-11-03T11:28:46.497Z,1.40
2022-11-03T11:33:49.066Z,1.65
2022-11-03T11:38:52.344Z,1.33
2022-11-03T11:43:54.242Z,1.52
2022-11-03T11:49:04.808Z,2.08
2022-11-03T11:54:17.839Z,1.50
2022-11-03T11:59:25.081Z,1.45
2022-11-03T12:04:31.435Z,1.30
2022-11-03T12:09:33.696Z,1.38
2022-11-03T12:14:39.656Z,1.20
2022-11-03T12:19:42.728Z,1.02
2022-11-03T12:24:54.846Z,1.17
2022-11-03T12:30:23.391Z,1.40
2022-11-03T12:35:25.083Z,1.45
2022-11-03T12:40:27.254Z,1.40
2022-11-03T12:45:28.963Z,1.38
2022-11-03T12:50:30.856Z,1.75
2022-11-03T12:55:33.897Z,1.55
2022-11-03T13:00:35.727Z,1.45
2022-11-03T13:05:37.443Z,1.77
2022-11-03T13:10:40.704Z,1.35
2022-11-03T13:15:42.514Z,1.88
2022-11-03T13:20:45.083Z,1.67
2022-11-03T13:25:46.928Z,1.70
2022-11-03T13:30:49.143Z,2.17
2022-11-03T13:35:51.123Z,2.05
2022-11-03T13:40:57.788Z,2.28
2022-11-03T13:46:02.757Z,2.03
2022-11-03T13:51:04.813Z,2.17
2022-11-03T13:56:08.814Z,1.85
2022-11-03T14:01:12.249Z,2.08
2022-11-03T14:06:14.240Z,1.92
2022-11-03T14:11:34.341Z,2.15
2022-11-03T14:16:36.216Z,2.00
2022-11-03T14:21:38.017Z,2.22
2022-11-03T14:26:42.834Z,1.67
2022-11-03T14:31:45.075Z,2.22
2022-11-03T14:36:46.835Z,1.77
2022-11-03T14:42:06.707Z,2.38
2022-11-03T14:47:11.052Z,2.00
2022-11-03T14:52:13.047Z,2.72
2022-11-03T14:57:15.049Z,2.40
2022-11-03T15:02:16.865Z,2.30
2022-11-03T15:07:18.735Z,2.22
2022-11-03T15:12:20.601Z,2.03
2022-11-03T15:17:22.365Z,2.13
2022-11-03T15:27:45.968Z,2.38
2022-11-03T15:32:47.744Z,2.72
2022-11-03T15:37:49.509Z,2.53
2022-11-03T15:42:51.697Z,2.33
2022-11-03T15:47:58.179Z,2.60
2022-11-03T15:53:00.180Z,2.60
2022-11-03T15:58:01.928Z,2.50
2022-11-03T16:03:03.857Z,2.40
2022-11-03T16:08:06.058Z,2.90
2022-11-03T16:13:07.913Z,2.45
2022-11-03T16:18:10.072Z,2.45
2022-11-03T16:23:12.009Z,3.03
2022-11-03T16:28:13.778Z,2.53
2022-11-03T16:33:15.614Z,2.72
2022-11-03T16:38:17.367Z,3.10
2022-11-03T16:43:19.087Z,3.08
2022-11-03T16:48:20.868Z,2.95
2022-11-03T16:53:22.767Z,3.30
2022-11-03T16:58:24.757Z,2.72
2022-11-03T17:03:26.582Z,3.05
2022-11-03T17:13:50.468Z,2.90
2022-11-03T17:18:52.253Z,3.10
2022-11-03T17:23:54.138Z,3.10
2022-11-03T17:28:57.369Z,3.15
2022-11-03T17:33:59.570Z,3.65
2022-11-03T17:39:01.392Z,4.50
2022-11-03T17:44:10.816Z,4.38
2022-11-03T17:49:12.575Z,5.18
2022-11-03T17:54:17.006Z,4.30
2022-11-03T17:59:19.058Z,4.25
2022-11-03T18:04:20.812Z,3.55
2022-11-03T18:09:22.552Z,4.00
2022-11-03T18:14:26.190Z,3.25
2022-11-03T18:19:28.106Z,3.60
2022-11-03T18:24:29.820Z,2.83
2022-11-03T18:29:31.616Z,3.65
2022-11-03T18:34:34.740Z,3.00
2022-11-03T18:39:37.427Z,3.13
2022-11-03T18:44:41.383Z,2.83
2022-11-03T18:49:43.518Z,3.00
2022-11-03T18:54:47.374Z,2.97
2022-11-03T18:59:49.796Z,2.97
2022-11-03T19:04:51.676Z,3.00
2022-11-03T19:09:53.472Z,3.28
2022-11-03T19:14:55.395Z,3.50
2022-11-03T19:19:57.460Z,2.65
2022-11-03T19:24:59.190Z,2.45
2022-11-03T19:30:02.298Z,2.33
2022-11-03T19:35:14.977Z,2.72
2022-11-03T19:40:18.996Z,2.83
2022-11-03T19:45:23.310Z,2.53
2022-11-03T19:50:35.208Z,2.90
2022-11-03T19:55:41.021Z,2.45
2022-11-03T20:00:44.268Z,2.67
2022-11-03T20:05:49.485Z,3.53
2022-11-03T20:10:52.136Z,2.90
2022-11-03T20:16:00.502Z,2.55
2022-11-03T20:21:04.349Z,3.40
2022-11-03T20:26:12.073Z,1.20
2022-11-03T20:31:15.184Z,1.20
2022-11-03T20:36:19.290Z,1.00
2022-11-03T20:41:21.078Z,1.10
2022-11-03T20:46:29.210Z,1.10
2022-11-03T20:51:33.808Z,1.30
2022-11-03T20:56:35.662Z,1.10
2022-11-03T21:01:37.604Z,0.90
2022-11-03T21:06:39.393Z,1.48
2022-11-03T21:11:43.338Z,1.25
2022-11-03T21:17:03.489Z,1.10
2022-11-03T21:22:45.865Z,1.70
2022-11-03T21:27:42.451Z,0.80
2022-11-03T21:32:44.383Z,0.88
2022-11-03T21:37:46.444Z,1.20
2022-11-03T21:43:07.112Z,1.17
2022-11-03T21:48:27.699Z,1.48
2022-11-03T21:53:30.719Z,1.05
2022-11-03T21:58:33.020Z,1.30
2022-11-03T22:03:35.696Z,1.88
2022-11-03T22:08:38.098Z,1.75
2022-11-03T22:13:39.848Z,2.63
2022-11-03T22:18:41.562Z,2.33
2022-11-03T22:24:01.834Z,2.47
2022-11-03T22:29:22.350Z,2.53
2022-11-03T22:34:42.945Z,2.08
2022-11-03T22:40:03.342Z,2.20
2022-11-03T22:45:24.073Z,3.15
2022-11-03T22:55:27.408Z,3.00
2022-11-03T23:00:29.259Z,1.95
2022-11-03T23:05:32.872Z,2.45
2022-11-03T23:10:34.612Z,2.00
2022-11-03T23:15:40.777Z,1.70
2022-11-03T23:21:01.013Z,1.70
2022-11-03T23:26:02.780Z,2.30
2022-11-03T23:31:04.782Z,1.85
2022-11-03T23:36:12.373Z,1.58
2022-11-03T23:41:17.455Z,1.52
2022-11-03T23:46:40.388Z,2.00
2022-11-03T23:51:42.314Z,1.50
2022-11-03T23:57:05.097Z,1.55
